Time;durP1;ratioP1;P1;durP2;ratioP2;P2;SDS_P1;SDS_P2;PMS_P1;PMS_P2;Temp;Humidity;BMP_temperature;BMP_pressure;BME280_temperature;BME280_humidity;BME280_pressure;Samples;Min_cycle;Max_cycle;Signal;HPM_P1;HPM_P2
2022/09/03 00:02:18;;;;;;;1.17;0.80;;;;;;;14.50;100.00;101226.44;5010029;28;20418;-83
2022/09/03 00:04:56;;;;;;;1.98;1.00;;;;;;;14.29;100.00;101224.78;5004356;28;20435;-85
2022/09/03 00:07:36;;;;;;;2.17;0.90;;;;;;;14.19;100.00;101226.81;5024956;28;21086;-83
2022/09/03 00:10:14;;;;;;;4.75;1.10;;;;;;;14.15;100.00;101214.81;5026995;28;20446;-83
2022/09/03 00:12:51;;;;;;;2.80;0.98;;;;;;;14.14;100.00;101221.41;5006172;28;20778;-83
2022/09/03 00:15:25;;;;;;;1.58;0.90;;;;;;;14.20;100.00;101218.31;5024355;28;20424;-84
2022/09/03 00:18:05;;;;;;;1.65;0.90;;;;;;;14.03;100.00;101220.69;5028475;28;20423;-84
2022/09/03 00:20:41;;;;;;;2.65;1.10;;;;;;;13.94;100.00;101234.19;5007798;28;20417;-84
2022/09/03 00:23:20;;;;;;;1.67;1.00;;;;;;;13.85;100.00;101220.34;5032048;28;20407;-84
2022/09/03 00:25:54;;;;;;;1.73;0.85;;;;;;;13.84;100.00;101229.63;5034934;28;20414;-86
2022/09/03 00:28:33;;;;;;;1.75;0.90;;;;;;;13.83;100.00;101229.94;5024951;28;20749;-86
2022/09/03 00:31:16;;;;;;;2.22;0.82;;;;;;;13.89;100.00;101239.72;5013959;28;20418;-82
2022/09/03 00:33:55;;;;;;;1.50;0.80;;;;;;;13.92;100.00;101233.66;5030850;28;20422;-82
2022/09/03 00:36:35;;;;;;;1.48;1.00;;;;;;;13.92;100.00;101220.81;5012415;28;20457;-84
2022/09/03 00:39:11;;;;;;;1.63;0.80;;;;;;;13.94;100.00;101221.31;5017829;28;20428;-84
2022/09/03 00:41:49;;;;;;;1.60;0.95;;;;;;;13.75;100.00;101228.63;5022644;28;20419;-83
2022/09/03 00:44:48;;;;;;;1.65;1.00;;;;;;;13.68;100.00;101217.22;5010718;28;20432;-82
2022/09/03 00:47:29;;;;;;;1.77;0.82;;;;;;;13.72;100.00;101224.53;5030047;28;20879;-82
2022/09/03 00:50:10;;;;;;;2.60;0.90;;;;;;;13.63;100.00;101217.25;5017826;28;20423;-84
2022/09/03 00:52:55;;;;;;;1.58;0.98;;;;;;;13.63;100.00;101211.78;5000254;28;20928;-84
2022/09/03 00:55:39;;;;;;;1.77;0.90;;;;;;;13.58;100.00;101218.94;5027491;28;20426;-84
2022/09/03 00:58:33;;;;;;;5.63;1.10;;;;;;;13.59;100.00;101225.22;5031454;28;21143;-82
2022/09/03 01:01:14;;;;;;;3.13;0.88;;;;;;;13.54;100.00;101219.78;5014393;28;20431;-84
2022/09/03 01:03:59;;;;;;;2.27;0.90;;;;;;;13.56;100.00;101214.84;5004432;28;20427;-84
2022/09/03 01:06:40;;;;;;;1.80;0.88;;;;;;;13.42;100.00;101220.16;5023587;28;20443;-84
2022/09/03 01:09:29;;;;;;;2.50;1.00;;;;;;;13.37;100.00;101222.94;5021016;28;20411;-81
2022/09/03 01:12:13;;;;;;;1.30;0.90;;;;;;;13.44;100.00;101223.44;5029719;28;20434;-84
2022/09/03 01:15:01;;;;;;;2.10;1.00;;;;;;;13.35;100.00;101216.91;5011579;28;20690;-83
2022/09/03 01:17:49;;;;;;;1.40;0.90;;;;;;;13.37;100.00;101226.50;5024042;28;20423;-83
2022/09/03 01:20:37;;;;;;;2.10;1.00;;;;;;;13.32;100.00;101217.47;5012484;28;20423;-85
2022/09/03 01:23:27;;;;;;;2.13;1.00;;;;;;;13.36;100.00;101213.09;5024827;28;20423;-85
2022/09/03 01:26:08;;;;;;;2.60;1.00;;;;;;;13.33;100.00;101225.41;5031719;28;20430;-85
2022/09/03 01:28:56;;;;;;;1.77;1.00;;;;;;;13.25;100.00;101226.00;5024769;28;20423;-85
2022/09/03 01:31:32;;;;;;;2.05;1.00;;;;;;;13.24;100.00;101219.72;5007208;28;20427;-85
2022/09/03 01:34:15;;;;;;;2.03;0.90;;;;;;;13.20;100.00;101231.50;5029486;28;20752;-86
2022/09/03 01:36:53;;;;;;;1.95;0.98;;;;;;;13.19;100.00;101225.22;5027027;28;20434;-84
2022/09/03 01:39:34;;;;;;;2.60;1.00;;;;;;;13.13;100.00;101229.06;5010202;28;20458;-84
2022/09/03 01:42:15;;;;;;;1.75;1.00;;;;;;;13.12;100.00;101212.97;5027090;28;20439;-86
2022/09/03 01:45:08;;;;;;;2.80;0.90;;;;;;;13.15;100.00;101220.63;5025720;28;20943;-84
2022/09/03 01:47:54;;;;;;;2.42;1.00;;;;;;;13.22;100.00;101212.91;5028796;28;20431;-83
2022/09/03 01:50:39;;;;;;;1.55;1.00;;;;;;;13.30;100.00;101206.00;5029241;28;20428;-86
2022/09/03 01:53:26;;;;;;;3.87;1.00;;;;;;;13.20;100.00;101226.88;5026118;28;20789;-86
2022/09/03 01:56:16;;;;;;;2.50;1.10;;;;;;;13.30;100.00;101214.19;5026983;28;20423;-85
2022/09/03 01:58:56;;;;;;;1.73;0.90;;;;;;;13.37;100.00;101214.75;5024841;28;20427;-86
2022/09/03 02:01:31;;;;;;;1.73;1.00;;;;;;;13.38;100.00;101195.31;5022692;28;20454;-85
2022/09/03 02:04:16;;;;;;;2.25;0.90;;;;;;;13.43;100.00;101216.31;5011620;28;20431;-85
2022/09/03 02:06:50;;;;;;;5.50;1.00;;;;;;;13.50;100.00;101216.81;4996246;28;20425;-88
2022/09/03 02:09:24;;;;;;;3.37;1.00;;;;;;;13.58;100.00;101210.72;5007176;28;20637;-86
2022/09/03 02:11:56;;;;;;;2.20;1.00;;;;;;;13.55;100.00;101215.97;5028089;28;20419;-86
2022/09/03 02:14:30;;;;;;;1.33;0.90;;;;;;;13.60;100.00;101221.38;5011026;28;20761;-85
2022/09/03 02:17:05;;;;;;;1.88;0.90;;;;;;;13.56;100.00;101223.03;5028988;28;20916;-85
2022/09/03 02:19:39;;;;;;;1.50;1.02;;;;;;;13.55;100.00;101222.25;5011897;28;20454;-84
2022/09/03 02:22:07;;;;;;;3.33;1.00;;;;;;;13.55;100.00;101214.03;5028987;28;20420;-86
2022/09/03 02:24:40;;;;;;;1.45;1.00;;;;;;;13.37;100.00;101209.28;5018762;28;20436;-87
2022/09/03 02:27:13;;;;;;;1.65;0.90;;;;;;;13.58;100.00;101220.84;5026136;28;20442;-86
2022/09/03 02:29:48;;;;;;;1.60;0.90;;;;;;;13.49;100.00;101209.72;5025714;28;20433;-85
2022/09/03 02:32:17;;;;;;;2.30;1.00;;;;;;;13.39;100.00;101163.31;5029965;28;20425;-86
2022/09/03 02:34:46;;;;;;;3.10;1.02;;;;;;;13.64;100.00;101197.00;5030187;28;20407;-83
2022/09/03 02:37:19;;;;;;;2.38;0.98;;;;;;;13.52;100.00;101209.16;5028095;28;20427;-85
2022/09/03 02:39:53;;;;;;;1.40;0.90;;;;;;;13.51;100.00;101210.25;5004179;28;20419;-83
2022/09/03 02:42:26;;;;;;;1.20;0.80;;;;;;;13.49;100.00;101207.00;5027931;28;20423;-82
2022/09/03 02:45:09;;;;;;;2.85;0.90;;;;;;;13.44;100.00;101210.56;5026743;28;20430;-81
2022/09/03 02:47:47;;;;;;;3.65;0.98;;;;;;;13.38;100.00;101202.69;5029727;28;20430;-84
2022/09/03 02:50:20;;;;;;;1.60;1.00;;;;;;;13.27;100.00;101205.50;5024598;28;20914;-87
2022/09/03 02:52:54;;;;;;;1.47;1.00;;;;;;;13.23;100.00;101204.44;5023662;28;20435;-86
2022/09/03 02:55:22;;;;;;;2.42;0.98;;;;;;;13.08;100.00;101207.28;5029245;28;20411;-85
2022/09/03 02:57:56;;;;;;;3.30;1.00;;;;;;;12.99;100.00;101204.31;5029464;28;20407;-85
2022/09/03 03:00:24;;;;;;;2.83;1.02;;;;;;;13.17;100.00;101210.22;5027750;28;20419;-86
2022/09/03 03:02:59;;;;;;;2.30;0.95;;;;;;;13.00;100.00;101207.88;5007342;28;20436;-86
2022/09/03 03:05:41;;;;;;;3.40;1.00;;;;;;;13.00;100.00;101213.34;5030495;28;20482;-86
2022/09/03 03:08:19;;;;;;;1.50;1.00;;;;;;;12.92;100.00;101212.81;5026673;28;20430;-86
2022/09/03 03:10:50;;;;;;;2.07;0.80;;;;;;;12.91;100.00;101205.75;5023826;28;20426;-87
2022/09/03 03:13:24;;;;;;;1.40;1.00;;;;;;;12.84;100.00;101190.75;5027573;28;20424;-86
2022/09/03 03:15:58;;;;;;;3.13;1.15;;;;;;;12.89;100.00;101209.84;5028651;28;20787;-85
2022/09/03 03:18:33;;;;;;;2.13;1.02;;;;;;;12.87;100.00;101212.03;5029299;28;20419;-86
2022/09/03 03:21:05;;;;;;;1.90;0.90;;;;;;;12.72;100.00;101194.66;5015085;28;20953;-83
2022/09/03 03:23:39;;;;;;;1.40;0.90;;;;;;;13.08;100.00;101201.81;5021925;28;20788;-86
2022/09/03 03:26:09;;;;;;;2.15;1.05;;;;;;;13.08;100.00;101207.28;5026648;28;20422;-87
2022/09/03 03:28:42;;;;;;;2.00;0.90;;;;;;;13.16;100.00;101203.94;5030007;28;20446;-86
2022/09/03 03:31:17;;;;;;;2.40;0.90;;;;;;;12.98;100.00;101202.69;5022853;28;20432;-85
2022/09/03 03:33:53;;;;;;;1.48;0.90;;;;;;;12.87;100.00;101204.66;5023496;28;20423;-87
2022/09/03 03:36:24;;;;;;;2.50;1.05;;;;;;;12.74;100.00;101211.53;5010755;28;20426;-83
2022/09/03 03:38:54;;;;;;;1.97;1.00;;;;;;;12.91;100.00;101211.19;5025501;28;20446;-84
2022/09/03 03:41:24;;;;;;;2.42;1.00;;;;;;;12.96;100.00;101209.53;5028920;28;20417;-86
2022/09/03 03:43:59;;;;;;;2.72;1.10;;;;;;;12.86;100.00;101191.28;5012545;28;20463;-86
2022/09/03 03:46:30;;;;;;;2.40;0.90;;;;;;;12.95;100.00;101211.44;5025395;28;20461;-86
2022/09/03 03:49:06;;;;;;;1.35;0.90;;;;;;;12.90;100.00;101206.81;5012907;28;20931;-86
2022/09/03 03:51:39;;;;;;;2.35;0.93;;;;;;;12.83;100.00;101210.97;5008956;28;20777;-84
2022/09/03 03:54:12;;;;;;;2.10;0.90;;;;;;;12.93;100.00;101225.38;5024719;28;20438;-86
2022/09/03 03:56:40;;;;;;;1.90;1.00;;;;;;;12.89;100.00;101207.13;5028080;28;20425;-84
2022/09/03 03:59:09;;;;;;;3.20;0.93;;;;;;;12.75;100.00;101221.38;5035002;28;20415;-85
2022/09/03 04:01:42;;;;;;;4.22;1.02;;;;;;;12.76;100.00;101219.50;5011740;28;20435;-85
2022/09/03 04:04:17;;;;;;;2.53;1.00;;;;;;;12.79;100.00;101221.66;5032731;28;20510;-86
2022/09/03 04:06:50;;;;;;;1.45;0.90;;;;;;;12.78;100.00;101216.47;5032872;28;20411;-87
2022/09/03 04:09:18;;;;;;;3.00;1.10;;;;;;;12.69;100.00;101225.25;5034321;28;20822;-82
2022/09/03 04:11:46;;;;;;;1.80;0.88;;;;;;;12.71;100.00;101212.13;5017751;28;20429;-82
2022/09/03 04:14:20;;;;;;;3.03;1.10;;;;;;;12.70;100.00;101226.06;5012204;28;20438;-85
2022/09/03 04:16:54;;;;;;;1.73;0.90;;;;;;;12.86;100.00;101224.06;5016423;28;20430;-85
2022/09/03 04:19:24;;;;;;;3.90;1.00;;;;;;;12.81;100.00;101229.56;5016773;28;20419;-81
2022/09/03 04:21:57;;;;;;;2.65;1.02;;;;;;;12.75;100.00;101223.31;5033225;28;20413;-84
2022/09/03 04:24:30;;;;;;;2.83;1.20;;;;;;;12.84;100.00;101231.72;5028971;28;20426;-84
2022/09/03 04:27:04;;;;;;;2.70;1.10;;;;;;;12.90;100.00;101230.59;5031641;28;20421;-85
2022/09/03 04:29:32;;;;;;;1.42;1.00;;;;;;;12.84;100.00;101229.00;5027953;28;20434;-85
2022/09/03 04:34:57;;;;;;;3.03;1.00;;;;;;;12.60;100.00;101218.72;5027455;28;20411;-87
2022/09/03 04:37:30;;;;;;;1.30;0.90;;;;;;;12.59;100.00;101226.13;5028398;28;20434;-87
2022/09/03 04:40:04;;;;;;;2.17;1.10;;;;;;;12.58;100.00;101223.63;5030014;28;20423;-85
2022/09/03 04:42:37;;;;;;;1.65;0.90;;;;;;;12.64;100.00;101219.00;5034541;28;20435;-86
2022/09/03 04:45:14;;;;;;;1.65;0.88;;;;;;;12.61;100.00;101225.84;5024642;28;20780;-85
2022/09/03 04:47:56;;;;;;;2.90;1.00;;;;;;;12.53;100.00;101224.50;5029676;28;20441;-86
2022/09/03 04:50:34;;;;;;;2.15;1.00;;;;;;;12.54;100.00;101225.31;5010526;28;20430;-84
2022/09/03 04:53:07;;;;;;;1.85;1.10;;;;;;;12.37;100.00;101215.56;5012939;28;20423;-84
2022/09/03 04:55:40;;;;;;;1.92;0.90;;;;;;;12.47;100.00;101230.25;5006057;28;20431;-86
2022/09/03 04:58:13;;;;;;;1.83;1.00;;;;;;;12.44;100.00;101228.88;5013165;28;20429;-85
2022/09/03 05:00:46;;;;;;;2.15;1.00;;;;;;;12.48;100.00;101240.88;5027599;28;20426;-86
2022/09/03 05:03:20;;;;;;;1.20;0.80;;;;;;;12.28;100.00;101219.13;5030115;28;20430;-84
2022/09/03 05:05:55;;;;;;;1.60;1.00;;;;;;;12.46;100.00;101243.09;5029570;28;20431;-87
2022/09/03 05:08:25;;;;;;;3.65;1.10;;;;;;;12.43;100.00;101238.19;5025643;28;20446;-86
2022/09/03 05:10:59;;;;;;;1.25;0.85;;;;;;;12.31;100.00;101240.41;5025932;28;20430;-85
2022/09/03 05:13:28;;;;;;;1.73;0.90;;;;;;;12.28;100.00;101232.75;5029277;28;20426;-86
2022/09/03 05:15:59;;;;;;;1.33;0.90;;;;;;;12.22;100.00;101231.97;5011211;28;20427;-84
2022/09/03 05:18:28;;;;;;;1.73;1.10;;;;;;;12.22;100.00;101232.81;5031639;28;20906;-85
2022/09/03 05:21:05;;;;;;;2.33;1.10;;;;;;;12.32;100.00;101229.22;5025389;28;20436;-84
2022/09/03 05:23:41;;;;;;;1.90;0.90;;;;;;;12.42;100.00;101226.44;5032996;28;20791;-85
2022/09/03 05:26:16;;;;;;;2.85;1.00;;;;;;;12.43;100.00;101227.28;5029624;28;20438;-87
2022/09/03 05:28:53;;;;;;;1.57;1.00;;;;;;;12.75;100.00;101218.66;5011791;28;20442;-82
2022/09/03 05:31:28;;;;;;;2.25;1.10;;;;;;;12.95;100.00;101218.81;5029685;28;20430;-84
2022/09/03 05:34:04;;;;;;;2.42;1.10;;;;;;;12.86;100.00;101213.94;5013290;28;20450;-85
2022/09/03 05:36:39;;;;;;;2.13;1.10;;;;;;;13.09;100.00;101212.44;5003039;28;20431;-84
2022/09/03 05:39:12;;;;;;;2.10;1.00;;;;;;;13.12;100.00;101215.69;5012916;28;20891;-85
2022/09/03 05:41:45;;;;;;;2.53;1.05;;;;;;;13.05;100.00;101196.88;5010176;28;20437;-85
2022/09/03 05:44:20;;;;;;;1.40;1.00;;;;;;;13.21;100.00;101212.06;5029424;28;20419;-86
2022/09/03 05:46:53;;;;;;;2.10;1.00;;;;;;;13.41;100.00;101216.63;5030808;28;20423;-81
2022/09/03 05:49:27;;;;;;;1.77;1.00;;;;;;;13.56;100.00;101223.88;5010995;28;20494;-85
2022/09/03 05:52:02;;;;;;;2.58;1.00;;;;;;;13.56;100.00;101233.97;5018082;28;20437;-85
2022/09/03 05:54:35;;;;;;;2.53;1.00;;;;;;;13.56;100.00;101232.09;4999907;28;20799;-85
2022/09/03 05:57:03;;;;;;;3.13;1.10;;;;;;;13.71;100.00;101231.13;5012382;28;20442;-85
2022/09/03 05:59:36;;;;;;;3.65;1.10;;;;;;;13.80;100.00;101230.53;5022966;28;20425;-82
2022/09/03 06:02:10;;;;;;;1.93;0.90;;;;;;;13.87;100.00;101242.75;5038037;28;20417;-85
2022/09/03 06:04:43;;;;;;;1.60;1.00;;;;;;;13.98;100.00;101228.97;5030516;28;20899;-83
2022/09/03 06:07:17;;;;;;;3.95;1.00;;;;;;;13.97;100.00;101228.13;5025284;28;20441;-84
2022/09/03 06:09:50;;;;;;;4.83;1.20;;;;;;;13.97;100.00;101233.63;5004887;28;20494;-84
2022/09/03 06:12:23;;;;;;;2.42;1.00;;;;;;;13.82;100.00;101228.28;5026911;28;20423;-87
2022/09/03 06:14:52;;;;;;;1.92;1.08;;;;;;;13.74;100.00;101230.56;5030005;28;20418;-84
2022/09/03 06:17:25;;;;;;;6.03;1.50;;;;;;;13.88;100.00;101224.38;5030339;28;20418;-82
2022/09/03 06:19:53;;;;;;;2.65;1.00;;;;;;;13.92;100.00;101229.00;5030103;28;20867;-84
2022/09/03 06:22:28;;;;;;;2.53;1.10;;;;;;;13.78;100.00;101237.09;4994655;28;20432;-81
2022/09/03 06:25:02;;;;;;;1.90;1.10;;;;;;;13.86;100.00;101230.16;5030108;28;20427;-83
2022/09/03 06:27:35;;;;;;;2.40;1.10;;;;;;;13.80;100.00;101222.31;5008034;28;20439;-83
2022/09/03 06:30:06;;;;;;;1.98;1.00;;;;;;;13.98;100.00;101231.72;5025434;28;20428;-85
2022/09/03 06:32:34;;;;;;;3.25;1.10;;;;;;;13.99;100.00;101231.41;5029008;28;20419;-85
2022/09/03 06:35:08;;;;;;;2.90;1.02;;;;;;;14.24;100.00;101205.69;5012268;28;20432;-86
2022/09/03 06:37:41;;;;;;;3.40;1.30;;;;;;;14.33;100.00;101221.47;5005359;28;20439;-83
2022/09/03 06:40:21;;;;;;;2.42;1.10;;;;;;;14.47;100.00;101230.59;5006401;28;20432;-85
2022/09/03 06:43:02;;;;;;;2.35;1.10;;;;;;;14.48;100.00;101220.47;5016845;28;20625;-85
2022/09/03 06:45:35;;;;;;;1.75;1.08;;;;;;;14.46;100.00;101231.72;4999868;28;20438;-83
2022/09/03 06:48:08;;;;;;;1.77;1.00;;;;;;;14.69;100.00;101235.53;5024429;28;20428;-85
2022/09/03 06:50:36;;;;;;;2.63;1.20;;;;;;;14.91;100.00;101232.22;5028708;28;20454;-86
2022/09/03 06:53:11;;;;;;;3.10;1.20;;;;;;;14.98;100.00;101242.03;5011128;28;20438;-82
2022/09/03 06:55:44;;;;;;;7.93;1.08;;;;;;;15.08;100.00;101247.34;5011020;28;20454;-84
2022/09/03 06:58:12;;;;;;;5.63;1.30;;;;;;;14.92;100.00;101242.09;5020904;28;20424;-83
2022/09/03 07:00:45;;;;;;;1.92;1.00;;;;;;;14.99;100.00;101239.00;5024063;28;20424;-83
2022/09/03 07:03:19;;;;;;;4.75;1.10;;;;;;;15.20;100.00;101244.97;5020241;28;20427;-86
2022/09/03 07:05:52;;;;;;;4.20;1.30;;;;;;;15.21;100.00;101241.13;5008788;28;20440;-82
2022/09/03 07:08:21;;;;;;;2.20;1.00;;;;;;;15.26;100.00;101240.22;5011293;28;20416;-82
2022/09/03 07:10:55;;;;;;;2.20;1.10;;;;;;;15.18;100.00;101219.81;5010559;28;20421;-83
2022/09/03 07:13:28;;;;;;;3.53;1.15;;;;;;;15.35;100.00;101237.66;5010648;28;20905;-84
2022/09/03 07:16:02;;;;;;;3.83;1.25;;;;;;;15.43;100.00;101234.22;5010427;28;20424;-84
2022/09/03 07:18:36;;;;;;;4.53;1.30;;;;;;;15.36;100.00;101240.09;5023263;28;21169;-85
2022/09/03 07:21:12;;;;;;;2.70;1.23;;;;;;;15.58;100.00;101244.94;5010089;28;20427;-84
2022/09/03 07:23:47;;;;;;;3.08;1.05;;;;;;;15.49;100.00;101224.78;5030415;28;20907;-86
2022/09/03 07:26:22;;;;;;;1.92;1.10;;;;;;;15.67;100.00;101234.09;5025679;28;20431;-84
2022/09/03 07:28:52;;;;;;;3.17;1.30;;;;;;;15.47;100.00;101224.28;5029886;28;20426;-86
2022/09/03 07:31:28;;;;;;;3.80;1.20;;;;;;;15.64;100.00;101230.00;5032830;28;20880;-84
2022/09/03 07:34:04;;;;;;;4.20;1.25;;;;;;;15.70;100.00;101225.28;5055982;28;20463;-81
2022/09/03 07:36:40;;;;;;;3.90;1.30;;;;;;;15.62;100.00;101226.75;5058227;28;21247;-80
2022/09/03 07:39:15;;;;;;;3.17;1.15;;;;;;;15.80;100.00;101236.09;5057905;28;20754;-82
2022/09/03 07:41:49;;;;;;;5.03;1.30;;;;;;;15.68;100.00;101230.22;5057986;28;20408;-84
2022/09/03 07:44:23;;;;;;;2.13;1.20;;;;;;;15.91;100.00;101227.66;5025724;28;20422;-83
2022/09/03 07:46:51;;;;;;;3.80;1.30;;;;;;;16.10;100.00;101222.09;5018929;28;20434;-83
2022/09/03 07:49:24;;;;;;;4.45;1.25;;;;;;;15.97;100.00;101232.75;5037812;28;20748;-83
2022/09/03 07:51:53;;;;;;;2.25;1.13;;;;;;;16.20;100.00;101235.63;5019581;28;20791;-83
2022/09/03 07:54:27;;;;;;;2.20;1.20;;;;;;;16.00;100.00;101228.59;5035402;28;20418;-82
2022/09/03 07:57:00;;;;;;;3.20;1.40;;;;;;;16.44;100.00;101234.63;5036984;28;20422;-82
2022/09/03 07:59:34;;;;;;;5.10;1.30;;;;;;;16.49;100.00;101229.81;5015197;28;20777;-83
2022/09/03 08:02:07;;;;;;;3.63;1.20;;;;;;;16.48;100.00;101235.63;5029150;28;20433;-83
2022/09/03 08:04:42;;;;;;;5.10;1.38;;;;;;;16.75;100.00;101233.97;5014888;28;20448;-83
2022/09/03 08:07:10;;;;;;;6.60;1.30;;;;;;;16.65;100.00;101237.75;5020351;28;20429;-83
2022/09/03 08:09:44;;;;;;;3.63;1.20;;;;;;;16.64;100.00;101234.19;5036051;28;20430;-80
2022/09/03 08:12:18;;;;;;;3.38;1.40;;;;;;;16.59;100.00;101237.03;5034036;28;20430;-83
2022/09/03 08:14:51;;;;;;;2.50;1.40;;;;;;;16.75;100.00;101236.72;5036257;28;20415;-83
2022/09/03 08:17:24;;;;;;;3.10;1.30;;;;;;;16.59;100.00;101226.06;5049127;28;20428;-85
2022/09/03 08:19:52;;;;;;;2.15;1.27;;;;;;;16.70;100.00;101226.66;5035024;28;20780;-83
2022/09/03 08:22:21;;;;;;;4.05;1.50;;;;;;;16.75;100.00;101226.53;5031937;28;20415;-82
2022/09/03 08:24:55;;;;;;;2.60;1.27;;;;;;;16.90;100.00;101221.84;5016386;28;20502;-81
2022/09/03 08:27:29;;;;;;;2.65;1.20;;;;;;;16.79;100.00;101219.31;5015153;28;20447;-81
2022/09/03 08:30:03;;;;;;;2.85;1.25;;;;;;;17.02;100.00;101224.06;5015225;28;20435;-81
2022/09/03 08:32:36;;;;;;;3.08;1.20;;;;;;;17.10;100.00;101217.81;5031645;28;20449;-85
2022/09/03 08:35:09;;;;;;;6.75;1.40;;;;;;;17.42;99.56;101225.00;5012093;28;20780;-81
2022/09/03 08:37:42;;;;;;;2.22;1.30;;;;;;;17.16;100.00;101228.38;5010667;28;20427;-85
2022/09/03 08:40:17;;;;;;;4.43;1.35;;;;;;;17.44;100.00;101230.19;5027487;28;20915;-83
2022/09/03 08:43:05;;;;;;;3.35;1.25;;;;;;;17.65;95.37;101222.28;5032828;28;20407;-81
2022/09/03 08:45:39;;;;;;;2.63;1.30;;;;;;;17.58;99.61;101224.63;5025158;28;21435;-83
2022/09/03 08:48:13;;;;;;;3.58;1.20;;;;;;;17.47;100.00;101221.34;5029427;28;20410;-83
2022/09/03 08:50:54;;;;;;;4.13;1.47;;;;;;;17.50;100.00;101221.50;5015005;28;20419;-81
2022/09/03 08:53:36;;;;;;;2.50;1.40;;;;;;;17.72;94.32;101225.38;5008581;28;20430;-83
2022/09/03 08:56:10;;;;;;;2.35;1.25;;;;;;;17.68;99.23;101216.94;5025768;28;20425;-83
2022/09/03 08:58:43;;;;;;;3.83;1.30;;;;;;;17.78;100.00;101220.56;5029499;28;20434;-81
2022/09/03 09:01:30;;;;;;;3.05;1.60;;;;;;;18.00;97.22;101212.25;5011297;28;20423;-80
2022/09/03 09:04:12;;;;;;;5.20;1.30;;;;;;;18.12;98.34;101211.66;5008126;28;20440;-80
2022/09/03 09:06:53;;;;;;;3.40;1.30;;;;;;;18.07;98.08;101214.56;5025977;28;20418;-82
2022/09/03 09:09:31;;;;;;;3.80;1.20;;;;;;;18.25;92.11;101214.63;5022316;28;20852;-83
2022/09/03 09:12:16;;;;;;;3.42;1.33;;;;;;;18.26;94.85;101208.00;5028453;28;20429;-80
2022/09/03 09:14:50;;;;;;;1.98;1.20;;;;;;;18.38;100.00;101210.13;5030519;28;20422;-82
2022/09/03 09:17:37;;;;;;;2.00;1.20;;;;;;;18.46;94.71;101192.81;5011018;28;20428;-82
2022/09/03 09:20:18;;;;;;;2.35;1.00;;;;;;;18.55;89.95;101206.59;5031139;28;20419;-82
2022/09/03 09:22:56;;;;;;;2.55;1.30;;;;;;;18.63;96.92;101205.78;5026333;28;20416;-85
2022/09/03 09:25:31;;;;;;;3.55;1.27;;;;;;;18.68;87.14;101191.88;5029694;28;20867;-79
2022/09/03 09:28:16;;;;;;;5.18;1.58;;;;;;;18.57;86.59;101196.06;5017773;28;20900;-80
2022/09/03 09:30:51;;;;;;;5.30;1.37;;;;;;;18.78;81.24;101188.81;5027592;28;20473;-83
2022/09/03 09:33:25;;;;;;;2.80;1.17;;;;;;;18.74;88.98;101187.00;5004080;28;20801;-82
2022/09/03 09:35:53;;;;;;;3.05;1.30;;;;;;;18.84;83.30;101193.00;5014992;28;20430;-83
2022/09/03 09:38:31;;;;;;;3.05;1.23;;;;;;;18.92;86.15;101193.38;5026814;28;20484;-81
2022/09/03 09:41:09;;;;;;;5.73;1.30;;;;;;;18.90;77.74;101190.94;5032073;28;20404;-80
2022/09/03 09:43:44;;;;;;;2.23;1.10;;;;;;;18.79;84.95;101182.13;5027961;28;20430;-81
2022/09/03 09:46:14;;;;;;;3.75;1.10;;;;;;;18.90;86.67;101185.41;5024037;28;20427;-83
2022/09/03 09:48:51;;;;;;;2.40;1.20;;;;;;;19.20;71.83;101175.34;5001249;28;20466;-82
2022/09/03 09:51:27;;;;;;;3.70;1.20;;;;;;;19.14;78.73;101176.66;5001569;28;20911;-81
2022/09/03 09:54:02;;;;;;;2.17;1.20;;;;;;;19.27;69.08;101179.56;5024330;28;20434;-82
2022/09/03 09:56:35;;;;;;;2.38;1.30;;;;;;;19.17;67.90;101177.97;5027602;28;20419;-82
2022/09/03 09:59:11;;;;;;;7.97;1.50;;;;;;;19.14;72.26;101182.19;5007608;28;20434;-82
2022/09/03 10:01:45;;;;;;;2.10;1.20;;;;;;;19.28;69.16;101182.00;5011195;28;20934;-83
2022/09/03 10:04:23;;;;;;;3.57;1.23;;;;;;;19.23;70.81;101175.84;5029758;28;20761;-81
2022/09/03 10:07:03;;;;;;;6.10;1.20;;;;;;;19.35;67.49;101167.72;5023448;28;20444;-80
2022/09/03 10:09:33;;;;;;;2.92;1.20;;;;;;;19.50;61.48;101171.88;5015512;28;20423;-83
2022/09/03 10:12:13;;;;;;;5.03;1.38;;;;;;;19.51;66.48;101162.47;5027710;28;20463;-81
2022/09/03 10:14:57;;;;;;;2.27;1.10;;;;;;;19.69;56.98;101172.31;5028244;28;20434;-84
2022/09/03 10:17:31;;;;;;;3.23;1.20;;;;;;;19.68;55.24;101169.91;5010632;28;20939;-80
2022/09/03 10:20:29;;;;;;;1.83;1.00;;;;;;;19.63;63.32;101159.81;5028987;28;20426;-82
2022/09/03 10:23:01;;;;;;;1.97;1.10;;;;;;;19.84;56.77;101170.97;5024512;28;20419;-79
2022/09/03 10:25:38;;;;;;;2.50;1.20;;;;;;;20.02;60.91;101166.22;5026206;28;20426;-81
2022/09/03 10:28:12;;;;;;;5.35;1.20;;;;;;;19.82;58.61;101164.19;5021354;28;20447;-80
2022/09/03 10:31:03;;;;;;;3.20;1.20;;;;;;;19.67;64.94;101171.84;5003768;28;20430;-83
2022/09/03 10:33:40;;;;;;;2.83;1.10;;;;;;;19.71;64.19;101153.47;5028956;28;20434;-85
2022/09/03 10:36:18;;;;;;;2.72;1.20;;;;;;;19.83;56.41;101151.97;5011539;28;20415;-82
2022/09/03 10:39:00;;;;;;;4.50;1.27;;;;;;;20.02;54.39;101152.41;5022806;28;20939;-80
2022/09/03 10:41:47;;;;;;;4.65;1.20;;;;;;;19.75;54.15;101155.56;5000122;28;20431;-84
2022/09/03 10:44:34;;;;;;;3.17;1.03;;;;;;;19.76;60.01;101158.00;5008785;28;20872;-82
2022/09/03 10:47:23;;;;;;;5.38;1.25;;;;;;;19.85;59.98;101155.25;5029080;28;20419;-83
2022/09/03 10:50:02;;;;;;;1.93;1.03;;;;;;;20.02;63.60;101154.34;5007339;28;20435;-81
2022/09/03 10:52:48;;;;;;;1.87;1.20;;;;;;;20.09;62.33;101134.47;5019350;28;20873;-80
2022/09/03 10:55:34;;;;;;;3.25;1.13;;;;;;;20.27;57.97;101135.19;5026432;28;20478;-81
2022/09/03 10:58:25;;;;;;;2.90;1.20;;;;;;;20.56;57.80;101140.69;5010021;28;20427;-82
2022/09/03 11:01:04;;;;;;;4.07;1.48;;;;;;;20.63;51.39;101128.25;5023268;28;20430;-83
2022/09/03 11:03:47;;;;;;;1.83;1.15;;;;;;;20.72;55.88;101129.84;5015461;28;20427;-82
2022/09/03 11:06:26;;;;;;;3.15;1.15;;;;;;;20.28;56.57;101134.06;5009129;28;20419;-82
2022/09/03 11:09:05;;;;;;;2.28;1.15;;;;;;;20.20;48.41;101124.66;5021091;28;20423;-82
2022/09/03 11:11:40;;;;;;;5.37;1.20;;;;;;;20.43;54.40;101118.84;5008926;28;20427;-83
2022/09/03 11:14:10;;;;;;;5.07;1.23;;;;;;;20.80;53.23;101119.88;5021522;28;20796;-83
2022/09/03 11:16:43;;;;;;;4.35;1.30;;;;;;;20.67;50.05;101127.28;5009850;28;20426;-86
2022/09/03 11:19:24;;;;;;;2.53;1.30;;;;;;;20.80;50.77;101110.72;5021812;28;20502;-82
2022/09/03 11:21:58;;;;;;;2.00;1.02;;;;;;;20.39;42.74;101113.97;5029040;28;20446;-82
2022/09/03 11:24:33;;;;;;;3.63;1.20;;;;;;;20.88;47.06;101113.44;5017175;28;20796;-82
2022/09/03 11:27:20;;;;;;;2.60;1.10;;;;;;;21.19;47.27;101103.84;5010243;28;20419;-82
2022/09/03 11:30:00;;;;;;;4.10;1.10;;;;;;;21.42;44.20;101111.75;5025373;28;20435;-80
2022/09/03 11:32:48;;;;;;;2.57;1.00;;;;;;;21.34;44.12;101104.34;5032814;28;20426;-83
2022/09/03 11:35:30;;;;;;;1.70;1.00;;;;;;;21.16;46.19;101117.56;5024062;28;20883;-81
2022/09/03 11:38:05;;;;;;;1.95;1.10;;;;;;;21.06;42.87;101116.06;5025575;28;20427;-80
2022/09/03 11:40:43;;;;;;;4.25;1.10;;;;;;;21.28;46.22;101109.31;5024216;28;20430;-81
2022/09/03 11:43:27;;;;;;;3.17;1.10;;;;;;;21.49;47.24;101108.41;5027946;28;20431;-83
2022/09/03 11:46:10;;;;;;;1.55;0.90;;;;;;;21.31;48.29;101105.03;5023760;28;20756;-81
2022/09/03 11:48:45;;;;;;;1.90;1.00;;;;;;;21.20;46.16;101107.44;5020480;28;20421;-81
2022/09/03 11:51:34;;;;;;;2.90;1.17;;;;;;;21.30;49.46;101104.22;5023026;28;20911;-80
2022/09/03 11:54:04;;;;;;;3.60;1.00;;;;;;;20.88;41.09;101102.38;5023269;28;20418;-81
2022/09/03 11:56:37;;;;;;;2.90;1.10;;;;;;;20.64;46.01;101102.25;5020623;28;20437;-81
2022/09/03 11:59:20;;;;;;;3.15;1.20;;;;;;;20.50;49.52;101105.28;5009354;28;20927;-80
2022/09/03 12:02:00;;;;;;;6.77;1.10;;;;;;;20.43;45.48;101110.53;5022957;28;20511;-82
2022/09/03 12:04:56;;;;;;;1.70;1.07;;;;;;;20.36;45.30;101097.25;5025728;28;20438;-83